createdAt,value
2017-12-21T00:00:06.958Z,81.60
2017-12-21T00:02:35.037Z,81.10
2017-12-21T00:05:02.967Z,80.90
2017-12-21T00:07:30.951Z,80.20
2017-12-21T00:09:59.036Z,79.50
2017-12-21T00:12:27.898Z,79.40
2017-12-21T00:14:55.966Z,79.80
2017-12-21T00:17:24.847Z,80.80
2017-12-21T00:19:52.728Z,80.10
2017-12-21T00:22:32.437Z,80.20
2017-12-21T00:25:00.398Z,80.50
2017-12-21T00:27:28.537Z,80.60
2017-12-21T00:29:57.364Z,80.60
2017-12-21T00:32:26.257Z,80.20
2017-12-21T00:34:54.427Z,80.30
2017-12-21T00:37:22.568Z,80.00
2017-12-21T00:39:50.576Z,79.40
2017-12-21T00:42:18.498Z,79.20
2017-12-21T00:44:46.497Z,79.60
2017-12-21T00:47:14.498Z,80.70
2017-12-21T00:49:42.596Z,80.90
2017-12-21T00:52:10.668Z,80.60
2017-12-21T00:54:38.837Z,80.30
2017-12-21T00:57:06.878Z,80.00
2017-12-21T00:59:34.846Z,78.50
2017-12-21T01:02:02.847Z,77.80
2017-12-21T01:04:30.818Z,78.40
2017-12-21T01:06:59.548Z,78.60
2017-12-21T01:09:28.357Z,78.80
2017-12-21T01:11:56.319Z,79.50
2017-12-21T01:14:24.377Z,78.50
2017-12-21T01:16:52.436Z,79.40
2017-12-21T01:19:20.518Z,78.70
2017-12-21T01:21:48.558Z,78.30
2017-12-21T01:24:16.558Z,78.00
2017-12-21T01:26:44.910Z,75.30
2017-12-21T01:29:13.666Z,79.80
2017-12-21T01:31:41.668Z,79.10
2017-12-21T01:34:09.727Z,77.40
2017-12-21T01:36:37.797Z,77.60
2017-12-21T01:39:05.798Z,77.00
2017-12-21T01:41:34.789Z,78.00
2017-12-21T01:44:02.867Z,78.10
2017-12-21T01:46:31.641Z,81.50
2017-12-21T01:48:59.548Z,81.50
2017-12-21T01:51:27.677Z,81.60
2017-12-21T01:53:55.907Z,82.50
2017-12-21T01:56:23.960Z,83.30
2017-12-21T01:58:52.056Z,82.20
2017-12-21T02:01:48.017Z,82.10
2017-12-21T02:04:16.880Z,81.40
2017-12-21T02:06:44.847Z,81.60
2017-12-21T02:09:12.732Z,82.00
2017-12-21T02:11:40.737Z,81.60
2017-12-21T02:14:08.746Z,81.00
2017-12-21T02:16:36.757Z,80.60
2017-12-21T02:19:04.857Z,80.90
2017-12-21T02:21:33.067Z,80.00
2017-12-21T02:24:01.188Z,79.10
2017-12-21T02:26:29.368Z,79.60
2017-12-21T02:28:57.497Z,81.60
2017-12-21T02:31:25.629Z,82.50
2017-12-21T02:33:53.819Z,82.40
2017-12-21T02:36:22.387Z,81.60
2017-12-21T02:38:50.616Z,81.70
2017-12-21T02:41:18.677Z,81.40
2017-12-21T02:43:46.747Z,79.80
2017-12-21T02:46:14.807Z,80.00
2017-12-21T02:48:42.928Z,79.90
2017-12-21T02:51:10.951Z,80.00
2017-12-21T02:53:39.189Z,80.30
2017-12-21T02:56:07.337Z,81.20
2017-12-21T02:58:35.447Z,79.10
2017-12-21T03:01:03.657Z,77.60
2017-12-21T03:03:31.668Z,78.10
2017-12-21T03:05:59.747Z,77.90
2017-12-21T03:08:27.838Z,78.80
2017-12-21T03:10:55.960Z,79.40
2017-12-21T03:13:24.827Z,81.60
2017-12-21T03:15:53.677Z,81.30
2017-12-21T03:18:21.935Z,81.30
2017-12-21T03:20:49.938Z,80.60
2017-12-21T03:23:17.967Z,81.20
2017-12-21T03:25:45.989Z,82.10
2017-12-21T03:28:14.038Z,81.40
2017-12-21T03:30:44.941Z,82.20
2017-12-21T03:33:13.239Z,82.10
2017-12-21T03:35:41.277Z,80.80
2017-12-21T03:38:09.595Z,79.50
2017-12-21T03:40:37.716Z,80.90
2017-12-21T03:43:05.727Z,82.40
2017-12-21T03:45:33.837Z,82.50
2017-12-21T03:48:02.470Z,80.60
2017-12-21T03:50:30.608Z,79.60
2017-12-21T03:52:58.597Z,79.50
2017-12-21T03:55:26.673Z,80.40
2017-12-21T03:57:54.827Z,83.50
2017-12-21T04:00:25.701Z,84.10
2017-12-21T04:02:53.897Z,84.00
2017-12-21T04:05:21.938Z,84.50
2017-12-21T04:07:49.942Z,84.50
2017-12-21T04:10:19.005Z,84.70
2017-12-21T04:12:47.128Z,84.80
2017-12-21T04:15:15.278Z,84.90
2017-12-21T04:17:43.277Z,85.00
2017-12-21T04:20:11.328Z,85.20
2017-12-21T04:22:39.269Z,85.40
2017-12-21T04:25:07.337Z,85.40
2017-12-21T04:27:35.317Z,85.00
2017-12-21T04:30:03.288Z,84.90
2017-12-21T04:32:32.438Z,85.40
2017-12-21T04:35:00.597Z,85.60
2017-12-21T04:37:28.668Z,85.80
2017-12-21T04:39:56.477Z,85.10
2017-12-21T04:42:24.398Z,85.10
2017-12-21T04:44:52.477Z,84.50
2017-12-21T04:47:20.558Z,83.60
2017-12-21T04:49:49.245Z,82.60
2017-12-21T04:52:17.325Z,81.50
2017-12-21T04:54:46.454Z,81.00
2017-12-21T04:57:14.838Z,81.00
2017-12-21T04:59:43.078Z,81.40
2017-12-21T05:02:11.855Z,81.90
2017-12-21T05:04:40.094Z,82.10
2017-12-21T05:07:08.156Z,81.20
2017-12-21T05:09:36.224Z,80.00
2017-12-21T05:12:04.315Z,80.10
2017-12-21T05:14:32.381Z,80.50
2017-12-21T05:17:02.635Z,81.80
2017-12-21T05:19:31.645Z,81.80
2017-12-21T05:21:59.977Z,82.60
2017-12-21T05:24:28.347Z,83.50
2017-12-21T05:26:56.728Z,82.10
2017-12-21T05:29:24.848Z,81.10
2017-12-21T05:31:52.917Z,81.40
2017-12-21T05:34:21.324Z,81.40
2017-12-21T05:36:49.354Z,82.60
2017-12-21T05:39:17.387Z,84.60
2017-12-21T05:41:45.515Z,85.40
2017-12-21T05:44:14.014Z,86.00
2017-12-21T05:46:42.149Z,86.10
2017-12-21T05:49:10.287Z,85.60
2017-12-21T05:51:38.227Z,85.40
2017-12-21T05:54:06.454Z,85.30
2017-12-21T05:56:35.065Z,85.20
2017-12-21T05:59:03.144Z,85.00
2017-12-21T06:01:31.335Z,84.80
2017-12-21T06:03:59.734Z,84.70
2017-12-21T06:06:27.809Z,84.50
2017-12-21T06:08:56.245Z,84.80
2017-12-21T06:11:24.176Z,83.50
2017-12-21T06:13:52.577Z,83.20
2017-12-21T06:16:20.526Z,82.60
2017-12-21T06:18:48.358Z,81.60
2017-12-21T06:21:16.197Z,81.60
2017-12-21T06:23:44.021Z,81.00
2017-12-21T06:26:11.982Z,80.90
2017-12-21T06:28:39.844Z,81.90
2017-12-21T06:31:08.641Z,83.60
2017-12-21T06:33:36.561Z,83.60
2017-12-21T06:36:04.861Z,83.40
2017-12-21T06:38:32.791Z,83.20
2017-12-21T06:41:00.762Z,83.20
2017-12-21T06:43:28.722Z,83.00
2017-12-21T06:45:56.638Z,82.50
2017-12-21T06:48:24.698Z,81.60
2017-12-21T06:50:52.638Z,81.50
2017-12-21T06:53:20.480Z,81.70
2017-12-21T06:55:48.400Z,81.50
2017-12-21T06:58:16.479Z,81.20
2017-12-21T07:00:44.330Z,81.10
2017-12-21T07:03:12.703Z,80.70
2017-12-21T07:05:40.564Z,80.20
2017-12-21T07:08:08.321Z,79.50
2017-12-21T07:10:36.141Z,79.80
2017-12-21T07:13:03.960Z,79.60
2017-12-21T07:15:31.783Z,79.50
2017-12-21T07:17:59.582Z,79.40
2017-12-21T07:20:27.318Z,78.60
2017-12-21T07:22:55.062Z,77.90
2017-12-21T07:25:23.663Z,77.40
2017-12-21T07:27:51.502Z,77.40
2017-12-21T07:30:19.302Z,77.60
2017-12-21T07:32:47.122Z,77.50
2017-12-21T07:35:15.423Z,77.70
2017-12-21T07:37:43.181Z,78.10
2017-12-21T07:40:11.039Z,77.80
2017-12-21T07:42:38.918Z,79.90
2017-12-21T07:45:06.702Z,80.70
2017-12-21T07:47:34.680Z,80.70
2017-12-21T07:50:02.461Z,80.80
2017-12-21T07:52:30.360Z,80.60
2017-12-21T07:54:58.760Z,80.20
2017-12-21T07:57:26.576Z,79.80
2017-12-21T07:59:54.479Z,79.10
2017-12-21T08:02:22.409Z,78.20
2017-12-21T08:04:50.201Z,77.00
2017-12-21T08:07:18.000Z,75.90
2017-12-21T08:09:46.262Z,75.30
2017-12-21T08:12:14.035Z,74.50
2017-12-21T08:14:41.859Z,74.60
2017-12-21T08:17:09.722Z,74.60
2017-12-21T08:19:37.662Z,74.90
2017-12-21T08:22:05.480Z,75.30
2017-12-21T08:24:33.375Z,75.40
2017-12-21T08:27:01.287Z,75.20
2017-12-21T08:29:29.042Z,74.60
2017-12-21T08:31:56.823Z,74.20
2017-12-21T08:34:24.621Z,73.80
2017-12-21T08:36:52.405Z,73.70
2017-12-21T08:39:20.266Z,74.70
2017-12-21T08:41:48.042Z,75.20
2017-12-21T08:44:15.858Z,75.30
2017-12-21T08:46:43.875Z,75.40
2017-12-21T08:49:11.657Z,74.60
2017-12-21T08:51:39.520Z,72.30
2017-12-21T08:54:07.320Z,72.30
2017-12-21T08:56:35.253Z,72.20
2017-12-21T08:59:03.840Z,76.20
2017-12-21T09:01:31.781Z,76.10
2017-12-21T09:03:59.820Z,76.70
2017-12-21T09:06:27.619Z,76.30
2017-12-21T09:08:55.562Z,77.10
2017-12-21T09:11:23.301Z,75.60
2017-12-21T09:13:51.098Z,77.00
2017-12-21T09:16:18.916Z,77.00
2017-12-21T09:18:46.736Z,76.90
2017-12-21T09:21:14.626Z,76.00
2017-12-21T09:23:42.499Z,75.90
2017-12-21T09:26:10.379Z,75.60
2017-12-21T09:28:38.339Z,74.50
2017-12-21T09:31:06.240Z,74.50
2017-12-21T09:33:34.019Z,73.40
2017-12-21T09:36:01.859Z,73.30
2017-12-21T09:38:30.459Z,75.30
2017-12-21T09:40:58.298Z,75.30
2017-12-21T09:43:26.939Z,75.60
2017-12-21T09:45:54.763Z,75.50
2017-12-21T09:48:22.601Z,75.60
2017-12-21T09:50:51.145Z,75.10
2017-12-21T09:53:18.963Z,75.10
2017-12-21T09:55:46.842Z,74.30
2017-12-21T09:58:14.644Z,73.90
2017-12-21T10:00:42.588Z,73.40
2017-12-21T10:03:10.460Z,73.20
2017-12-21T10:05:38.293Z,73.60
2017-12-21T10:08:06.160Z,74.20
2017-12-21T10:10:33.923Z,74.20
2017-12-21T10:13:01.790Z,73.00
2017-12-21T10:15:29.623Z,72.80
2017-12-21T10:17:58.261Z,72.70
2017-12-21T10:20:26.060Z,72.60
2017-12-21T10:22:53.900Z,72.60
2017-12-21T10:25:21.783Z,72.20
2017-12-21T10:27:49.619Z,70.80
2017-12-21T10:30:17.519Z,70.80
2017-12-21T10:32:45.364Z,70.00
2017-12-21T10:35:13.181Z,68.40
2017-12-21T10:37:40.942Z,69.30
2017-12-21T10:40:08.840Z,68.40
2017-12-21T10:42:36.640Z,68.10
2017-12-21T10:45:04.403Z,68.90
2017-12-21T10:47:32.259Z,68.30
2017-12-21T10:50:01.039Z,67.70
2017-12-21T10:52:28.962Z,67.70
2017-12-21T10:54:56.722Z,67.60
2017-12-21T10:57:25.260Z,66.70
2017-12-21T10:59:53.081Z,67.30
2017-12-21T11:02:21.022Z,66.10
2017-12-21T11:04:48.822Z,66.10
2017-12-21T11:07:16.661Z,65.00
2017-12-21T11:09:44.611Z,63.80
2017-12-21T11:12:12.481Z,64.30
2017-12-21T11:14:40.381Z,66.20
2017-12-21T11:17:08.338Z,66.00
2017-12-21T11:19:36.241Z,66.20
2017-12-21T11:22:04.230Z,66.40
2017-12-21T11:24:32.001Z,67.10
2017-12-21T11:26:59.800Z,65.70
2017-12-21T11:29:27.743Z,65.90
2017-12-21T11:31:55.580Z,65.20
2017-12-21T11:34:23.320Z,65.20
2017-12-21T11:36:51.249Z,63.80
2017-12-21T11:39:19.141Z,64.20
2017-12-21T11:41:46.960Z,63.00
2017-12-21T11:44:14.919Z,62.10
2017-12-21T11:46:42.741Z,61.20
2017-12-21T11:49:10.682Z,60.60
2017-12-21T11:51:38.561Z,60.10
2017-12-21T11:54:06.320Z,59.20
2017-12-21T11:56:34.179Z,60.70
2017-12-21T11:59:02.052Z,62.20
2017-12-21T12:01:29.900Z,62.10
2017-12-21T12:03:57.759Z,63.70
2017-12-21T12:06:25.624Z,61.50
2017-12-21T12:08:53.459Z,60.60
2017-12-21T12:11:21.284Z,61.40
2017-12-21T12:13:49.199Z,61.90
2017-12-21T12:16:16.961Z,60.40
2017-12-21T12:18:44.759Z,59.20
2017-12-21T12:21:12.709Z,59.40
2017-12-21T12:23:40.482Z,60.20
2017-12-21T12:26:08.280Z,61.40
2017-12-21T12:28:36.082Z,60.80
2017-12-21T12:31:03.907Z,61.30
2017-12-21T12:33:31.759Z,61.90
2017-12-21T12:35:59.628Z,61.00
2017-12-21T12:38:27.408Z,60.70
2017-12-21T12:40:55.203Z,61.70
2017-12-21T12:43:23.821Z,61.40
2017-12-21T12:45:51.782Z,61.30
2017-12-21T12:48:19.660Z,60.50
2017-12-21T12:50:48.262Z,60.50
2017-12-21T12:53:16.055Z,60.50
2017-12-21T12:55:43.940Z,60.30
2017-12-21T12:58:11.875Z,59.50
2017-12-21T13:00:40.471Z,59.60
2017-12-21T13:03:08.229Z,60.70
2017-12-21T13:05:36.047Z,60.70
2017-12-21T13:08:03.907Z,61.50
2017-12-21T13:10:31.787Z,61.30
2017-12-21T13:27:28.187Z,61.90
2017-12-21T13:30:01.064Z,62.30
2017-12-21T13:32:29.282Z,63.40
2017-12-21T13:34:57.444Z,63.20
2017-12-21T13:37:25.382Z,63.90
2017-12-21T13:39:53.199Z,63.80
2017-12-21T13:42:21.179Z,63.80
2017-12-21T13:44:49.124Z,64.20
2017-12-21T13:47:16.982Z,63.60
2017-12-21T13:49:44.841Z,63.10
2017-12-21T13:52:12.822Z,62.40
2017-12-21T13:54:41.143Z,63.00
2017-12-21T13:57:09.140Z,62.40
2017-12-21T13:59:37.000Z,62.60
2017-12-21T14:02:05.023Z,60.70
2017-12-21T14:04:32.963Z,61.50
2017-12-21T14:07:01.503Z,61.90
2017-12-21T14:09:29.380Z,62.00
2017-12-21T14:11:57.380Z,62.50
2017-12-21T14:14:25.699Z,63.00
2017-12-21T14:16:53.669Z,63.20
2017-12-21T14:19:21.940Z,62.80
2017-12-21T14:21:49.819Z,62.60
2017-12-21T14:24:17.799Z,61.40
2017-12-21T14:26:45.619Z,64.30
2017-12-21T14:29:13.599Z,62.60
2017-12-21T14:31:41.640Z,63.90
2017-12-21T14:34:09.500Z,61.20
2017-12-21T14:36:38.847Z,63.80
2017-12-21T14:39:06.819Z,62.70
2017-12-21T14:41:34.819Z,65.00
2017-12-21T14:44:02.901Z,65.70
2017-12-21T14:46:30.800Z,66.60
2017-12-21T14:48:58.949Z,59.70
2017-12-21T14:51:27.919Z,64.50
2017-12-21T14:53:55.898Z,62.30
2017-12-21T14:56:23.878Z,66.00
2017-12-21T14:58:51.705Z,64.40
2017-12-21T15:01:19.727Z,68.50
2017-12-21T15:03:47.600Z,67.00
2017-12-21T15:06:15.642Z,67.40
2017-12-21T15:08:43.623Z,66.40
2017-12-21T15:11:11.603Z,68.70
2017-12-21T15:13:39.586Z,66.30
2017-12-21T15:16:07.526Z,68.40
2017-12-21T15:18:36.147Z,67.20
2017-12-21T15:21:04.026Z,67.20
2017-12-21T15:23:31.926Z,68.90
2017-12-21T15:26:00.274Z,70.30
2017-12-21T15:28:29.843Z,67.60
2017-12-21T15:30:57.781Z,69.50
2017-12-21T15:33:25.722Z,65.10
2017-12-21T15:35:53.601Z,69.00
2017-12-21T15:38:21.601Z,68.30
2017-12-21T15:40:49.421Z,69.10
2017-12-21T15:43:17.461Z,66.40
2017-12-21T15:45:45.302Z,70.60
2017-12-21T15:48:13.081Z,63.80
2017-12-21T15:50:40.961Z,71.00
2017-12-21T15:53:09.124Z,67.20
2017-12-21T15:55:36.982Z,71.20
2017-12-21T15:58:04.881Z,69.80
2017-12-21T16:00:32.741Z,66.40
2017-12-21T16:03:00.702Z,67.50
2017-12-21T16:05:28.622Z,71.90
2017-12-21T16:07:56.900Z,71.30
2017-12-21T16:10:24.841Z,68.50
2017-12-21T16:12:52.819Z,69.40
2017-12-21T16:15:20.800Z,72.30
2017-12-21T16:17:48.739Z,69.50
2017-12-21T16:20:16.699Z,73.90
2017-12-21T16:22:44.759Z,75.70
2017-12-21T16:25:12.819Z,71.10
2017-12-21T16:27:40.985Z,69.60
2017-12-21T16:30:08.799Z,75.60
2017-12-21T16:32:36.759Z,77.10
2017-12-21T16:35:04.460Z,76.20
2017-12-21T16:37:32.320Z,75.30
2017-12-21T16:40:00.329Z,74.50
2017-12-21T16:42:28.279Z,75.90
2017-12-21T16:44:56.139Z,73.80
2017-12-21T16:47:24.080Z,72.00
2017-12-21T16:49:52.019Z,75.00
2017-12-21T16:52:20.159Z,75.00
2017-12-21T16:54:48.059Z,75.10
2017-12-21T16:57:15.899Z,75.40
2017-12-21T16:59:43.901Z,75.30
2017-12-21T17:02:11.845Z,74.70
2017-12-21T17:04:40.082Z,73.60
2017-12-21T17:07:10.875Z,69.60
2017-12-21T17:09:38.866Z,69.60
2017-12-21T17:12:06.842Z,71.20
2017-12-21T17:14:34.942Z,69.70
2017-12-21T17:17:03.063Z,74.00
2017-12-21T17:19:31.543Z,75.60
2017-12-21T17:21:59.483Z,75.30
2017-12-21T17:24:27.381Z,72.80
2017-12-21T17:26:55.423Z,73.60
2017-12-21T17:29:23.455Z,73.00
2017-12-21T17:31:51.421Z,73.30
2017-12-21T17:34:19.361Z,73.50
2017-12-21T17:36:47.405Z,73.10
2017-12-21T17:39:15.327Z,71.00
2017-12-21T17:41:43.742Z,73.30
2017-12-21T17:44:11.929Z,66.70
2017-12-21T17:46:40.061Z,70.70
2017-12-21T17:49:08.223Z,71.30
2017-12-21T17:51:36.359Z,74.70
2017-12-21T17:54:04.374Z,74.60
2017-12-21T17:56:32.393Z,71.00
2017-12-21T17:59:00.339Z,68.80
2017-12-21T18:01:28.363Z,68.60
2017-12-21T18:03:56.438Z,69.20
2017-12-21T18:06:24.483Z,74.10
2017-12-21T18:08:52.403Z,74.60
2017-12-21T18:11:21.144Z,72.90
2017-12-21T18:13:49.182Z,72.90
2017-12-21T18:16:17.380Z,72.50
2017-12-21T18:18:45.281Z,72.30
2017-12-21T18:21:13.345Z,72.10
2017-12-21T18:23:41.301Z,72.20
2017-12-21T18:26:09.283Z,72.20
2017-12-21T18:28:37.426Z,72.30
2017-12-21T18:31:05.307Z,72.50
2017-12-21T18:33:33.504Z,73.00
2017-12-21T18:36:01.401Z,73.20
2017-12-21T18:38:30.148Z,73.30
2017-12-21T18:40:58.222Z,73.10
2017-12-21T18:43:26.140Z,72.60
2017-12-21T18:45:54.020Z,72.00
2017-12-21T18:48:22.060Z,72.20
2017-12-21T18:50:49.819Z,72.70
2017-12-21T18:53:17.821Z,72.80
2017-12-21T18:55:45.761Z,72.70
2017-12-21T18:58:13.622Z,71.90
2017-12-21T19:00:41.622Z,72.80
2017-12-21T19:03:09.845Z,73.40
2017-12-21T19:05:37.759Z,74.50
2017-12-21T19:08:05.824Z,74.80
2017-12-21T19:10:33.781Z,74.60
2017-12-21T19:13:01.820Z,75.10
2017-12-21T19:15:29.840Z,75.00
2017-12-21T19:17:57.726Z,75.20
2017-12-21T19:20:26.081Z,74.30
2017-12-21T19:22:53.838Z,74.50
2017-12-21T19:25:22.039Z,73.90
2017-12-21T19:27:50.742Z,74.00
2017-12-21T19:30:18.606Z,74.00
2017-12-21T19:32:48.004Z,73.60
2017-12-21T19:35:15.992Z,73.00
2017-12-21T19:37:45.839Z,72.50
2017-12-21T19:40:14.252Z,72.30
2017-12-21T19:42:42.603Z,72.00
2017-12-21T19:45:10.606Z,71.80
2017-12-21T19:47:39.367Z,71.70
2017-12-21T19:50:07.344Z,71.50
2017-12-21T19:52:35.301Z,71.90
2017-12-21T19:55:03.202Z,72.40
2017-12-21T19:57:31.382Z,71.90
2017-12-21T19:59:59.222Z,73.20
2017-12-21T20:02:27.078Z,72.10
2017-12-21T20:04:54.963Z,71.80
2017-12-21T20:07:23.242Z,72.60
2017-12-21T20:09:51.261Z,72.60
2017-12-21T20:12:19.247Z,72.40
2017-12-21T20:14:47.821Z,72.00
2017-12-21T20:17:15.921Z,71.90
2017-12-21T20:19:43.821Z,72.30
2017-12-21T20:22:11.900Z,73.20
2017-12-21T20:24:39.979Z,72.70
2017-12-21T20:27:07.942Z,72.60
2017-12-21T20:29:36.499Z,73.90
2017-12-21T20:32:04.560Z,72.90
2017-12-21T20:34:32.888Z,72.70
2017-12-21T20:37:00.827Z,71.10
2017-12-21T20:39:28.801Z,71.40
2017-12-21T20:41:56.760Z,68.60
2017-12-21T20:44:25.072Z,70.10
2017-12-21T20:46:53.100Z,70.30
2017-12-21T20:49:20.979Z,68.30
2017-12-21T20:51:48.900Z,72.00
2017-12-21T20:54:17.979Z,70.50
2017-12-21T20:56:46.139Z,70.40
2017-12-21T20:59:14.060Z,70.90
2017-12-21T21:01:42.061Z,71.70
2017-12-21T21:04:10.742Z,74.60
2017-12-21T21:06:38.682Z,74.60
2017-12-21T21:09:06.670Z,71.90
2017-12-21T21:11:34.553Z,73.90
2017-12-21T21:14:02.469Z,73.80
2017-12-21T21:16:30.782Z,73.10
2017-12-21T21:18:58.710Z,73.00
2017-12-21T21:21:27.102Z,72.10
2017-12-21T21:23:55.000Z,72.90
2017-12-21T21:26:22.822Z,73.10
2017-12-21T21:28:51.122Z,69.00
2017-12-21T21:31:19.122Z,74.30
2017-12-21T21:33:47.871Z,71.60
2017-12-21T21:36:16.263Z,71.60
2017-12-21T21:38:44.182Z,70.20
2017-12-21T21:41:12.102Z,74.00
2017-12-21T21:43:39.983Z,75.40
2017-12-21T21:46:07.922Z,75.90
2017-12-21T21:48:35.763Z,75.60
2017-12-21T21:51:03.642Z,75.10
2017-12-21T21:53:31.681Z,74.50
2017-12-21T21:55:59.664Z,74.10
2017-12-21T21:58:27.580Z,73.70
2017-12-21T22:00:55.563Z,72.90
2017-12-21T22:03:23.443Z,72.90
2017-12-21T22:05:51.954Z,72.50
2017-12-21T22:08:19.768Z,73.10
2017-12-21T22:10:47.646Z,73.40
2017-12-21T22:13:15.498Z,73.20
2017-12-21T22:15:43.323Z,73.40
2017-12-21T22:20:43.063Z,74.20
2017-12-21T22:23:10.843Z,73.90
2017-12-21T22:25:38.823Z,73.30
2017-12-21T22:28:06.822Z,73.70
2017-12-21T22:30:34.679Z,73.20
2017-12-21T22:33:03.778Z,74.00
2017-12-21T22:35:32.181Z,73.90
2017-12-21T22:38:00.058Z,73.70
2017-12-21T22:40:27.999Z,74.10
2017-12-21T22:42:55.941Z,75.30
2017-12-21T22:45:23.802Z,74.00
2017-12-21T22:47:51.739Z,73.00
2017-12-21T22:50:19.679Z,73.90
2017-12-21T22:52:47.618Z,73.30
2017-12-21T22:55:15.618Z,74.20
2017-12-21T22:57:43.500Z,75.00
2017-12-21T23:00:11.269Z,74.70
2017-12-21T23:02:39.151Z,75.30
2017-12-21T23:05:07.168Z,74.80
2017-12-21T23:07:35.109Z,74.60
2017-12-21T23:10:03.071Z,74.70
2017-12-21T23:12:32.702Z,74.40
2017-12-21T23:15:00.541Z,74.00
2017-12-21T23:17:28.582Z,74.60
2017-12-21T23:19:56.422Z,74.20
2017-12-21T23:22:25.181Z,73.30
2017-12-21T23:24:53.143Z,73.30
2017-12-21T23:27:21.061Z,73.30
2017-12-21T23:29:49.790Z,72.40
2017-12-21T23:32:17.842Z,72.40
2017-12-21T23:34:45.722Z,71.80
2017-12-21T23:37:13.882Z,71.80
2017-12-21T23:39:41.822Z,71.90
2017-12-21T23:42:09.661Z,72.30
2017-12-21T23:44:38.542Z,74.40
2017-12-21T23:47:06.945Z,74.20
2017-12-21T23:49:34.821Z,74.30
2017-12-21T23:52:02.707Z,74.00
2017-12-21T23:54:30.601Z,73.80
2017-12-21T23:56:58.540Z,74.30
2017-12-21T23:59:26.420Z,75.60
